Santa Rosa, New Mexico
Current Conditions -  °F | °C
As of 2:53 AM on Sunday 25 Jan 2015 (Local Time) from KLVS Reporting Station
Clear Clear  
Wind Chill: 28°   Ceiling: Unl
Heat Index: 33°   Visibility: 10mi
Dew Point: 14°   Wind: 6mph
Humidity: 46%   Direction: 40°NE
Pressure: 30.2"   Gusts: NA
Location:  34.94°N, 104.68°W
Report Text: KLVS 250953Z AUTO 04005KT 10SM CLR 01/M10 A3020 RMK AO2 SLP187 T00061100
Loading
Personal Weather Stations






























Interactive Weather Map New forecast layout! Learn more

10-Day Weather Forecast

Advertisements
Track Severe Weather on mobile